Time;durP1;ratioP1;P1;durP2;ratioP2;P2;SDS_P1;SDS_P2;PMS_P1;PMS_P2;Temp;Humidity;BMP_temperature;BMP_pressure;BME280_temperature;BME280_humidity;BME280_pressure;Samples;Min_cycle;Max_cycle;Signal;HPM_P1;HPM_P2
2022/07/27 00:01:11;;;;;;;9.70;7.53;;;;;;;25.33;48.60;99331.72;4465815;32;34117;-61
2022/07/27 00:03:40;;;;;;;10.10;7.20;;;;;;;25.27;48.68;99329.03;4455145;32;34598;-62
2022/07/27 00:06:08;;;;;;;9.70;7.65;;;;;;;25.25;48.63;99326.50;4441271;32;32557;-64
2022/07/27 00:08:35;;;;;;;9.85;7.47;;;;;;;25.26;48.60;99338.28;4463411;32;33814;-63
2022/07/27 00:11:03;;;;;;;11.35;8.07;;;;;;;25.29;48.46;99338.69;4463230;32;33917;-62
2022/07/27 00:13:31;;;;;;;9.40;6.93;;;;;;;25.31;48.35;99341.22;4453381;32;34781;-61
2022/07/27 00:15:59;;;;;;;8.93;7.03;;;;;;;25.28;48.15;99337.00;4453275;32;34645;-62
2022/07/27 00:18:26;;;;;;;8.95;6.68;;;;;;;25.22;48.21;99343.38;4456864;32;34305;-63
2022/07/27 00:20:54;;;;;;;7.32;5.37;;;;;;;25.25;48.15;99342.09;4456592;32;33910;-62
2022/07/27 00:23:22;;;;;;;8.65;5.93;;;;;;;25.23;47.87;99339.59;4454408;32;35254;-62
2022/07/27 00:25:50;;;;;;;9.52;6.90;;;;;;;25.20;47.92;99345.50;4455743;32;33503;-63
2022/07/27 00:28:17;;;;;;;14.18;6.60;;;;;;;25.10;48.10;99348.69;4465893;32;33216;-61
2022/07/27 00:30:45;;;;;;;8.88;6.28;;;;;;;25.22;47.68;99343.38;4456606;32;35162;-65
2022/07/27 00:33:13;;;;;;;9.93;6.20;;;;;;;25.24;47.53;99340.41;4456836;32;33915;-63
2022/07/27 00:35:44;;;;;;;7.82;5.37;;;;;;;25.17;47.51;99343.19;4458264;32;34742;-64
2022/07/27 00:38:12;;;;;;;7.72;5.45;;;;;;;25.10;47.75;99342.34;4446896;32;31689;-61
2022/07/27 00:40:40;;;;;;;8.60;6.60;;;;;;;25.19;47.39;99340.22;4461029;32;34857;-63
2022/07/27 00:43:08;;;;;;;8.23;6.35;;;;;;;24.95;47.95;99339.06;4455041;32;34047;-63
2022/07/27 00:45:35;;;;;;;9.40;6.32;;;;;;;24.93;47.97;99339.28;4445068;32;34049;-64
2022/07/27 00:48:04;;;;;;;9.32;6.05;;;;;;;25.00;47.93;99347.44;4458995;32;33349;-63
2022/07/27 00:50:31;;;;;;;8.00;6.12;;;;;;;24.90;48.05;99341.59;4462189;32;32535;-61
2022/07/27 00:52:59;;;;;;;8.90;5.68;;;;;;;24.67;48.58;99342.97;4456691;32;35036;-64
2022/07/27 00:55:27;;;;;;;9.30;6.32;;;;;;;24.60;48.64;99337.50;4461128;32;34933;-64
2022/07/27 00:57:54;;;;;;;8.73;5.75;;;;;;;24.40;49.02;99339.44;4441215;32;34159;-64
2022/07/27 01:00:27;;;;;;;7.47;5.62;;;;;;;24.06;49.30;99335.91;4457977;32;33617;-63
2022/07/27 01:02:54;;;;;;;7.15;4.90;;;;;;;23.86;49.81;99338.66;4449605;32;33653;-62
2022/07/27 01:05:23;;;;;;;7.95;5.37;;;;;;;23.80;49.42;99327.75;4450856;32;32415;-62
2022/07/27 01:08:05;;;;;;;10.45;5.53;;;;;;;23.72;49.84;99345.16;4458407;32;34262;-61
2022/07/27 01:10:33;;;;;;;8.32;5.80;;;;;;;24.08;48.91;99346.66;4453857;32;33790;-60
2022/07/27 01:13:01;;;;;;;7.40;4.72;;;;;;;24.01;49.10;99338.44;4444928;32;33796;-64
2022/07/27 01:15:29;;;;;;;6.70;4.55;;;;;;;24.18;48.69;99341.59;4459823;32;34104;-62
2022/07/27 01:18:01;;;;;;;6.55;4.45;;;;;;;24.11;49.03;99347.06;4456329;32;34091;-62
2022/07/27 01:20:29;;;;;;;9.43;5.12;;;;;;;24.33;48.19;99344.06;4451218;32;33521;-61
2022/07/27 01:22:57;;;;;;;9.30;5.68;;;;;;;24.31;48.04;99344.28;4458869;32;33993;-64
2022/07/27 01:25:25;;;;;;;9.00;5.65;;;;;;;24.34;47.93;99349.34;4459804;32;33735;-63
2022/07/27 01:27:52;;;;;;;7.65;4.72;;;;;;;24.13;48.27;99352.31;4463092;32;33071;-61
2022/07/27 01:30:26;;;;;;;9.55;5.65;;;;;;;24.08;48.45;99349.38;4466419;32;34693;-61
2022/07/27 01:33:02;;;;;;;8.45;5.55;;;;;;;24.11;48.22;99335.31;4465981;32;35304;-61
2022/07/27 01:35:29;;;;;;;7.43;5.10;;;;;;;24.13;48.18;99341.38;4460371;32;33468;-65
2022/07/27 01:37:57;;;;;;;7.40;5.55;;;;;;;23.83;49.11;99335.53;4462873;32;33574;-60
2022/07/27 01:40:25;;;;;;;8.82;5.72;;;;;;;23.77;49.35;99333.62;4466132;32;32279;-61
2022/07/27 01:42:53;;;;;;;9.75;5.65;;;;;;;23.85;49.26;99341.59;4465504;32;32744;-60
2022/07/27 01:45:21;;;;;;;9.23;6.20;;;;;;;23.56;50.32;99351.00;4451096;32;34078;-61
2022/07/27 01:47:48;;;;;;;9.20;6.53;;;;;;;23.65;50.18;99349.75;4453434;32;33409;-60
2022/07/27 01:50:16;;;;;;;8.38;6.50;;;;;;;23.63;50.27;99350.00;4463609;32;34623;-60
2022/07/27 01:52:44;;;;;;;8.70;6.12;;;;;;;23.65;50.34;99349.75;4464772;32;34964;-60
2022/07/27 01:55:11;;;;;;;8.98;6.03;;;;;;;23.72;50.19;99336.97;4463507;32;33482;-61
2022/07/27 01:57:39;;;;;;;7.90;5.55;;;;;;;23.82;49.96;99329.22;4459022;32;33320;-63
2022/07/27 02:00:12;;;;;;;10.85;6.80;;;;;;;23.80;50.08;99338.69;4466285;32;33646;-61
2022/07/27 02:02:40;;;;;;;11.07;6.90;;;;;;;23.73;50.37;99335.94;4466909;32;34199;-60
2022/07/27 02:05:11;;;;;;;10.27;6.62;;;;;;;23.36;51.11;99340.06;4458510;32;33171;-63
2022/07/27 02:07:39;;;;;;;8.75;6.10;;;;;;;23.80;49.96;99334.03;4457133;32;33403;-61
2022/07/27 02:10:08;;;;;;;7.62;5.25;;;;;;;24.11;49.09;99329.81;4454542;32;33585;-61
2022/07/27 02:12:36;;;;;;;8.82;6.90;;;;;;;24.10;48.85;99330.84;4461685;32;33834;-60
2022/07/27 02:15:18;;;;;;;9.13;5.80;;;;;;;24.23;48.47;99328.09;4452876;32;32974;-62
2022/07/27 02:17:48;;;;;;;10.13;7.07;;;;;;;24.08;48.75;99333.00;4453375;32;34007;-61
2022/07/27 02:20:18;;;;;;;9.90;6.60;;;;;;;23.71;49.53;99324.38;4452280;32;34644;-60
2022/07/27 02:22:46;;;;;;;9.90;6.50;;;;;;;23.78;49.31;99329.84;4458370;32;33931;-61
2022/07/27 02:25:16;;;;;;;9.18;6.75;;;;;;;23.73;49.30;99329.66;4454751;32;35240;-63
2022/07/27 02:27:44;;;;;;;8.70;4.30;;;;;;;23.58;49.50;99338.00;4468558;32;33071;-62
2022/07/27 02:30:12;;;;;;;8.00;5.65;;;;;;;22.91;50.94;99340.53;4456011;32;34685;-60
2022/07/27 02:32:42;;;;;;;9.10;6.37;;;;;;;23.45;49.67;99325.16;4453484;32;33963;-61
2022/07/27 02:35:11;;;;;;;8.88;6.30;;;;;;;23.41;49.76;99332.09;4456563;32;33541;-61
2022/07/27 02:37:47;;;;;;;8.57;5.57;;;;;;;23.40;49.78;99339.47;4456844;32;33316;-62
2022/07/27 02:40:16;;;;;;;8.85;6.18;;;;;;;23.54;49.38;99339.47;4466617;32;34107;-62
2022/07/27 02:42:45;;;;;;;11.07;7.10;;;;;;;23.16;50.30;99342.75;4460291;32;33988;-61
2022/07/27 02:45:15;;;;;;;9.90;6.55;;;;;;;23.52;49.15;99341.56;4467708;32;35037;-63
2022/07/27 02:47:43;;;;;;;7.87;5.78;;;;;;;23.46;49.08;99332.31;4462641;32;33920;-63
2022/07/27 02:50:11;;;;;;;9.02;5.85;;;;;;;23.51;48.68;99342.62;4464760;32;34565;-62
2022/07/27 02:52:39;;;;;;;6.43;4.97;;;;;;;23.57;48.62;99336.31;4468194;32;34075;-60
2022/07/27 02:55:07;;;;;;;8.60;5.70;;;;;;;23.43;49.19;99332.72;4454904;32;34499;-63
2022/07/27 02:57:36;;;;;;;10.02;6.05;;;;;;;23.27;49.62;99331.22;4462476;32;34184;-62
2022/07/27 03:00:12;;;;;;;9.27;5.30;;;;;;;23.20;49.97;99338.56;4461374;32;33968;-63
2022/07/27 03:02:40;;;;;;;7.25;5.82;;;;;;;23.41;49.43;99337.56;4457108;32;35721;-63
2022/07/27 03:05:09;;;;;;;9.13;6.22;;;;;;;22.88;50.80;99343.66;4468096;32;33795;-59
2022/07/27 03:07:37;;;;;;;9.00;5.82;;;;;;;23.33;49.51;99344.03;4467815;32;34289;-62
2022/07/27 03:10:05;;;;;;;9.15;5.45;;;;;;;22.95;50.55;99336.41;4461520;32;34681;-63
2022/07/27 03:12:33;;;;;;;8.52;5.43;;;;;;;23.13;49.96;99338.53;4461637;32;33920;-60
2022/07/27 03:15:00;;;;;;;7.85;5.65;;;;;;;23.17;49.87;99334.34;4459876;32;32541;-62
2022/07/27 03:17:28;;;;;;;7.32;5.82;;;;;;;23.40;49.17;99344.06;4452708;32;31871;-60
2022/07/27 03:19:56;;;;;;;7.93;5.50;;;;;;;23.17;49.72;99342.53;4465454;32;32672;-63
2022/07/27 03:22:23;;;;;;;7.12;5.37;;;;;;;23.26;49.21;99332.28;4455932;32;34004;-62
2022/07/27 03:24:50;;;;;;;8.10;5.37;;;;;;;23.12;49.37;99327.84;4465071;32;33555;-60
2022/07/27 03:27:18;;;;;;;7.32;4.70;;;;;;;23.34;48.83;99329.34;4452634;32;35251;-60
2022/07/27 03:29:46;;;;;;;7.65;5.18;;;;;;;23.33;48.75;99333.13;4460193;32;33811;-61
2022/07/27 03:32:13;;;;;;;8.07;4.62;;;;;;;23.32;48.71;99345.09;4453192;32;34878;-61
2022/07/27 03:34:41;;;;;;;7.30;5.60;;;;;;;23.25;48.86;99342.34;4455322;32;34595;-60
2022/07/27 03:37:09;;;;;;;7.93;5.25;;;;;;;23.38;48.53;99341.53;4458697;32;33186;-61
2022/07/27 03:39:36;;;;;;;8.63;5.18;;;;;;;23.45;48.31;99334.19;4460469;32;34043;-61
2022/07/27 03:42:04;;;;;;;9.45;5.07;;;;;;;23.60;47.91;99335.91;4454051;32;34082;-60
2022/07/27 03:44:32;;;;;;;10.82;3.95;;;;;;;23.60;47.97;99344.94;4461562;32;33806;-60
2022/07/27 03:46:59;;;;;;;7.05;5.12;;;;;;;23.80;47.49;99344.97;4453116;32;33392;-62
2022/07/27 03:49:27;;;;;;;9.82;5.20;;;;;;;23.83;47.49;99350.03;4457739;32;34147;-61
2022/07/27 03:51:55;;;;;;;7.68;5.43;;;;;;;23.86;47.59;99343.31;4456607;32;32917;-64
2022/07/27 03:54:22;;;;;;;7.53;4.80;;;;;;;23.98;47.39;99347.09;4452778;32;33946;-62
2022/07/27 03:56:50;;;;;;;12.10;5.90;;;;;;;23.98;47.70;99348.94;4457957;32;34205;-63
2022/07/27 03:59:18;;;;;;;8.18;5.50;;;;;;;23.78;48.19;99340.75;4465611;32;33640;-61
2022/07/27 04:01:45;;;;;;;8.05;5.68;;;;;;;24.03;47.52;99344.53;4453024;32;35222;-64
2022/07/27 04:04:13;;;;;;;8.98;5.62;;;;;;;24.02;47.57;99350.22;4454186;32;32304;-62
2022/07/27 04:06:41;;;;;;;8.20;5.90;;;;;;;24.23;46.98;99349.97;4452334;32;34494;-63
2022/07/27 04:09:09;;;;;;;7.40;5.43;;;;;;;24.00;47.18;99342.22;4461107;32;33872;-65
2022/07/27 04:11:40;;;;;;;7.93;5.47;;;;;;;24.29;46.78;99351.03;4452686;32;33689;-65
2022/07/27 04:14:11;;;;;;;9.25;5.28;;;;;;;24.30;46.68;99353.56;4460605;32;35243;-62
2022/07/27 04:16:40;;;;;;;7.22;4.85;;;;;;;24.39;46.16;99354.16;4460885;32;33371;-65
2022/07/27 04:19:08;;;;;;;7.68;5.28;;;;;;;24.38;46.22;99342.38;4452218;32;33535;-61
2022/07/27 04:21:36;;;;;;;6.55;4.70;;;;;;;24.42;46.14;99350.19;4454757;32;33921;-62
2022/07/27 04:24:05;;;;;;;8.00;4.97;;;;;;;24.47;46.02;99355.88;4460397;32;33643;-62
2022/07/27 04:26:33;;;;;;;7.80;5.30;;;;;;;24.47;46.05;99362.19;4464876;32;33256;-62
2022/07/27 04:29:00;;;;;;;8.70;5.40;;;;;;;24.34;46.56;99364.91;4458527;32;35095;-62
2022/07/27 04:31:28;;;;;;;7.85;5.22;;;;;;;24.39;46.50;99349.53;4468386;32;35003;-64
2022/07/27 04:33:56;;;;;;;8.77;5.53;;;;;;;24.47;46.47;99362.19;4468200;32;33651;-64
2022/07/27 04:36:23;;;;;;;9.40;4.80;;;;;;;24.54;46.69;99362.16;4458529;32;32020;-63
2022/07/27 04:38:51;;;;;;;7.62;5.50;;;;;;;24.60;46.44;99361.31;4454550;32;35004;-62
2022/07/27 04:41:19;;;;;;;7.47;5.10;;;;;;;24.40;46.88;99355.84;4454666;32;33983;-64
2022/07/27 04:43:46;;;;;;;7.85;4.85;;;;;;;24.73;46.02;99353.03;4466059;32;33788;-62
2022/07/27 04:46:14;;;;;;;7.28;5.75;;;;;;;24.90;45.51;99349.81;4453672;32;31880;-65
2022/07/27 04:48:42;;;;;;;9.82;5.57;;;;;;;25.02;44.91;99359.03;4467926;32;33677;-64
2022/07/27 04:51:16;;;;;;;7.85;5.07;;;;;;;24.83;45.47;99350.69;4466096;32;33798;-60
2022/07/27 04:53:44;;;;;;;7.85;4.93;;;;;;;25.04;44.75;99348.69;4463778;32;32600;-64
2022/07/27 04:56:25;;;;;;;7.37;5.25;;;;;;;25.08;44.61;99355.44;4452269;32;33551;-61
2022/07/27 04:58:56;;;;;;;9.23;5.53;;;;;;;24.94;44.88;99359.28;4458985;32;33859;-62
2022/07/27 05:01:24;;;;;;;9.25;5.22;;;;;;;25.23;44.12;99366.09;4467404;32;33360;-61
2022/07/27 05:03:54;;;;;;;7.22;4.45;;;;;;;25.30;43.95;99365.03;4456461;32;34106;-60
2022/07/27 05:06:22;;;;;;;9.05;5.30;;;;;;;25.18;44.45;99366.78;4452113;32;33607;-62
2022/07/27 05:08:50;;;;;;;7.60;5.05;;;;;;;25.23;44.01;99372.44;4451805;32;34872;-64
2022/07/27 05:11:17;;;;;;;7.95;5.03;;;;;;;25.40;44.01;99371.94;4455511;32;33887;-65
2022/07/27 05:13:45;;;;;;;7.55;4.90;;;;;;;25.50;43.80;99372.28;4453169;32;34695;-65
2022/07/27 05:16:12;;;;;;;9.10;4.78;;;;;;;25.70;43.37;99378.47;4453909;32;34364;-64
2022/07/27 05:18:41;;;;;;;6.65;4.93;;;;;;;25.76;43.38;99374.84;4456955;32;32684;-66
2022/07/27 05:21:08;;;;;;;9.77;5.05;;;;;;;25.69;43.65;99370.47;4438117;32;33568;-61
2022/07/27 05:23:36;;;;;;;8.23;5.78;;;;;;;25.83;43.34;99380.28;4457820;32;35362;-62
2022/07/27 05:26:03;;;;;;;7.65;5.07;;;;;;;25.85;43.40;99383.66;4467110;32;34933;-61
2022/07/27 05:28:31;;;;;;;8.82;5.25;;;;;;;25.74;44.67;99381.59;4459612;32;33656;-61
2022/07/27 05:30:58;;;;;;;7.07;5.25;;;;;;;25.92;43.18;99378.13;4456452;32;33786;-62
2022/07/27 05:33:27;;;;;;;7.95;5.00;;;;;;;26.01;43.61;99385.00;4467087;32;35492;-64
2022/07/27 05:35:55;;;;;;;7.10;5.12;;;;;;;26.25;43.15;99373.16;4466741;32;33212;-64
2022/07/27 05:38:22;;;;;;;8.63;5.10;;;;;;;26.40;43.02;99391.19;4465978;32;32259;-61
2022/07/27 05:40:52;;;;;;;8.27;5.40;;;;;;;26.20;43.22;99381.25;4462455;32;34099;-60
2022/07/27 05:43:19;;;;;;;9.23;5.15;;;;;;;26.37;42.78;99383.41;4454590;32;32293;-61
2022/07/27 05:45:47;;;;;;;7.40;5.05;;;;;;;26.39;42.64;99381.28;4452410;32;34056;-61
2022/07/27 05:48:15;;;;;;;7.97;5.25;;;;;;;26.02;42.79;99381.19;4457429;32;33281;-63
2022/07/27 05:50:42;;;;;;;8.60;5.28;;;;;;;26.12;41.21;99388.91;4465492;32;35143;-65
2022/07/27 05:53:10;;;;;;;8.48;5.07;;;;;;;26.50;40.89;99383.31;4460168;32;32649;-63
2022/07/27 05:55:38;;;;;;;7.60;5.00;;;;;;;26.47;41.16;99387.31;4459703;32;32976;-61
2022/07/27 05:58:24;;;;;;;9.10;4.95;;;;;;;26.50;41.64;99398.94;4463299;32;34835;-62
2022/07/27 06:00:53;;;;;;;9.25;4.80;;;;;;;26.80;41.30;99399.03;4456101;32;34046;-60
2022/07/27 06:03:21;;;;;;;7.43;4.82;;;;;;;26.79;40.82;99394.62;4465083;32;32723;-61
2022/07/27 06:05:49;;;;;;;7.28;4.87;;;;;;;26.77;40.21;99408.56;4457986;32;33446;-59
2022/07/27 06:08:16;;;;;;;7.00;4.45;;;;;;;26.86;39.28;99403.59;4460914;32;33719;-65
2022/07/27 06:10:44;;;;;;;8.02;4.37;;;;;;;27.07;39.08;99414.13;4461759;32;34323;-60
2022/07/27 06:13:12;;;;;;;8.00;4.80;;;;;;;27.13;39.10;99413.25;4465211;32;33949;-61
2022/07/27 06:15:40;;;;;;;7.18;4.57;;;;;;;27.14;39.70;99417.66;4454157;32;33013;-61
2022/07/27 06:18:15;;;;;;;6.97;4.32;;;;;;;26.96;39.53;99417.62;4452649;32;33571;-64
2022/07/27 06:20:44;;;;;;;7.12;4.25;;;;;;;27.10;38.52;99412.84;4453644;32;34001;-63
2022/07/27 06:23:12;;;;;;;6.62;4.40;;;;;;;27.44;38.94;99419.59;4459075;32;34080;-61
2022/07/27 06:25:39;;;;;;;7.28;4.18;;;;;;;27.37;37.89;99416.94;4466112;32;31985;-62
2022/07/27 06:28:08;;;;;;;7.12;4.68;;;;;;;27.76;37.57;99417.44;4466360;32;35272;-63
2022/07/27 06:30:35;;;;;;;9.38;4.93;;;;;;;27.74;38.00;99413.25;4461211;32;33597;-59
2022/07/27 06:33:03;;;;;;;6.55;4.03;;;;;;;27.80;37.18;99412.31;4455126;32;33771;-59
2022/07/27 06:35:33;;;;;;;9.02;4.95;;;;;;;27.95;35.77;99414.66;4462440;32;33656;-59
2022/07/27 06:38:04;;;;;;;8.10;4.20;;;;;;;27.56;36.76;99414.16;4469281;32;32148;-63
2022/07/27 06:40:32;;;;;;;7.72;4.40;;;;;;;27.67;37.34;99420.75;4465384;32;34151;-62
2022/07/27 06:42:59;;;;;;;5.85;3.87;;;;;;;27.70;36.24;99415.63;4460263;32;33988;-63
2022/07/27 06:45:27;;;;;;;8.10;3.95;;;;;;;27.79;37.13;99417.00;4460796;32;32297;-58
2022/07/27 06:47:55;;;;;;;6.60;4.20;;;;;;;27.84;36.13;99410.81;4456754;32;33701;-59
2022/07/27 06:50:23;;;;;;;7.72;4.10;;;;;;;28.03;36.32;99406.06;4455251;32;35371;-62
2022/07/27 06:52:50;;;;;;;8.55;3.92;;;;;;;27.59;35.55;99403.53;4452416;32;34904;-62
2022/07/27 06:55:18;;;;;;;7.22;3.58;;;;;;;27.35;35.01;99410.84;4459131;32;33325;-59
2022/07/27 06:57:46;;;;;;;6.18;3.40;;;;;;;27.76;35.19;99402.84;4469172;32;34848;-61
2022/07/27 07:00:14;;;;;;;7.80;3.70;;;;;;;27.44;34.90;99400.34;4462393;32;32728;-63
2022/07/27 07:02:54;;;;;;;8.77;3.30;;;;;;;27.45;35.99;99406.69;4452336;32;33306;-60
2022/07/27 07:05:26;;;;;;;7.05;4.00;;;;;;;27.71;34.81;99405.47;4461438;32;34391;-60
2022/07/27 07:07:54;;;;;;;7.28;3.17;;;;;;;28.13;34.47;99405.47;4457235;32;33586;-59
2022/07/27 07:10:23;;;;;;;7.78;3.60;;;;;;;28.27;34.85;99409.66;4457838;32;35510;-59
2022/07/27 07:12:54;;;;;;;5.55;2.87;;;;;;;28.45;33.15;99406.84;4453027;32;35075;-59
2022/07/27 07:15:23;;;;;;;6.18;2.87;;;;;;;28.32;31.91;99407.06;4462244;32;34494;-61
2022/07/27 07:17:53;;;;;;;8.85;3.00;;;;;;;28.44;31.55;99398.81;4460060;32;33406;-61
2022/07/27 07:20:20;;;;;;;4.37;2.72;;;;;;;28.69;31.62;99404.88;4459035;32;34043;-59
2022/07/27 07:22:49;;;;;;;6.22;3.22;;;;;;;28.52;32.69;99401.22;4453548;32;32526;-59
2022/07/27 07:25:16;;;;;;;5.05;2.85;;;;;;;28.22;32.78;99399.37;4461516;32;33287;-59
2022/07/27 07:27:44;;;;;;;5.22;2.65;;;;;;;28.33;31.67;99393.03;4453365;32;33925;-59
2022/07/27 07:30:12;;;;;;;8.30;3.65;;;;;;;28.45;31.06;99383.97;4465622;32;34800;-60
2022/07/27 07:32:39;;;;;;;7.28;3.12;;;;;;;28.59;29.78;99390.91;4463830;32;116296;-62
2022/07/27 07:35:08;;;;;;;5.68;2.55;;;;;;;27.99;29.60;99400.16;4466618;32;34466;-61
2022/07/27 07:37:35;;;;;;;5.40;2.97;;;;;;;28.40;30.47;99389.34;4457030;32;33619;-61
2022/07/27 07:40:04;;;;;;;4.97;2.50;;;;;;;28.62;30.56;99381.34;4462765;32;35180;-60
2022/07/27 07:42:55;;;;;;;6.80;2.40;;;;;;;28.47;29.78;99387.31;4465529;32;33404;-60
2022/07/27 07:45:23;;;;;;;6.87;2.95;;;;;;;28.26;31.23;99373.06;4460249;32;34295;-61
2022/07/27 07:47:51;;;;;;;4.70;2.65;;;;;;;28.48;29.72;99383.50;4454216;32;35498;-59
2022/07/27 07:50:20;;;;;;;6.28;3.00;;;;;;;28.45;29.94;99379.31;4466196;32;32792;-59
2022/07/27 07:52:49;;;;;;;8.45;2.92;;;;;;;28.72;30.14;99378.78;4464150;32;34809;-63
2022/07/27 07:55:22;;;;;;;7.22;2.42;;;;;;;28.79;29.68;99368.47;4456113;32;32252;-58
2022/07/27 07:57:49;;;;;;;6.03;3.40;;;;;;;28.67;30.15;99375.91;4464849;32;33842;-60
2022/07/27 08:00:19;;;;;;;7.10;4.22;;;;;;;28.91;29.14;99377.56;4456178;32;34019;-62
2022/07/27 08:02:48;;;;;;;7.82;4.50;;;;;;;28.57;28.52;99376.53;4453060;32;34927;-61
2022/07/27 08:05:16;;;;;;;7.32;3.85;;;;;;;28.70;28.22;99379.06;4455004;32;34550;-61
2022/07/27 08:07:44;;;;;;;5.68;3.12;;;;;;;28.25;28.85;99373.28;4469149;32;33955;-62
2022/07/27 08:10:13;;;;;;;8.60;3.80;;;;;;;28.63;28.12;99378.31;4468505;32;33749;-62
2022/07/27 08:12:43;;;;;;;6.53;4.12;;;;;;;28.71;27.73;99368.87;4460964;32;33628;-60
2022/07/27 08:15:12;;;;;;;8.18;5.60;;;;;;;28.97;28.21;99370.25;4463139;32;33287;-59
2022/07/27 08:17:41;;;;;;;7.00;4.75;;;;;;;29.11;26.91;99370.81;4456376;32;32766;-60
2022/07/27 08:20:10;;;;;;;9.65;5.87;;;;;;;29.30;26.28;99368.72;4453104;32;32864;-62
2022/07/27 08:22:37;;;;;;;7.97;4.75;;;;;;;28.84;27.33;99368.59;4462129;32;33593;-61
2022/07/27 08:25:07;;;;;;;9.45;4.97;;;;;;;29.17;27.01;99367.09;4462642;32;33285;-60
2022/07/27 08:27:35;;;;;;;9.68;6.75;;;;;;;28.86;27.98;99366.44;4457329;32;32952;-60
2022/07/27 08:30:09;;;;;;;13.23;9.80;;;;;;;28.72;27.45;99370.53;4467342;32;35677;-61
2022/07/27 08:32:53;;;;;;;9.80;7.28;;;;;;;29.27;26.27;99364.53;4463049;32;33065;-59
2022/07/27 08:35:21;;;;;;;11.52;10.32;;;;;;;29.36;26.05;99359.47;4455712;32;31985;-60
2022/07/27 08:37:50;;;;;;;10.90;8.25;;;;;;;28.83;27.33;99361.44;4464005;32;33953;-60
2022/07/27 08:40:22;;;;;;;10.70;8.68;;;;;;;29.15;27.42;99355.47;4442031;32;37219;-62
2022/07/27 08:43:11;;;;;;;15.65;9.80;;;;;;;29.01;27.33;99360.44;4461941;32;34708;-63
2022/07/27 08:45:40;;;;;;;16.65;14.73;;;;;;;29.53;26.41;99353.97;4452295;32;34175;-59
2022/07/27 08:48:12;;;;;;;21.77;18.83;;;;;;;29.49;25.94;99359.16;4452319;32;33944;-61
2022/07/27 08:50:40;;;;;;;19.70;16.60;;;;;;;29.95;23.83;99359.97;4459924;32;32676;-62
2022/07/27 08:53:11;;;;;;;15.63;13.65;;;;;;;29.59;24.92;99353.81;4459539;32;34855;-60
2022/07/27 08:55:41;;;;;;;14.85;10.50;;;;;;;29.60;25.25;99358.31;4458373;32;32202;-60
2022/07/27 08:58:11;;;;;;;14.45;11.50;;;;;;;29.80;24.57;99352.31;4468591;32;33891;-59
2022/07/27 09:00:44;;;;;;;13.38;10.45;;;;;;;29.73;24.60;99348.88;4457315;32;34065;-59
2022/07/27 09:03:13;;;;;;;11.95;9.85;;;;;;;29.97;24.73;99351.47;4457646;32;34664;-61
2022/07/27 09:05:52;;;;;;;9.95;8.40;;;;;;;29.96;25.18;99355.31;4459838;32;34506;-63
2022/07/27 09:08:26;;;;;;;9.50;7.30;;;;;;;29.66;25.43;99349.03;4469695;32;32574;-63
2022/07/27 09:10:58;;;;;;;10.65;7.70;;;;;;;30.16;23.35;99345.41;4462315;32;32857;-61
2022/07/27 09:13:33;;;;;;;13.95;6.15;;;;;;;29.54;25.33;99339.97;4461589;32;34193;-61
2022/07/27 09:16:06;;;;;;;8.23;5.22;;;;;;;30.11;25.21;99352.78;4463107;32;34844;-59
2022/07/27 09:18:59;;;;;;;10.40;6.30;;;;;;;29.76;25.42;99350.28;4466229;32;35028;-60
2022/07/27 09:21:27;;;;;;;8.68;6.60;;;;;;;30.16;25.16;99356.47;4468572;32;34128;-63
2022/07/27 09:24:12;;;;;;;10.38;7.53;;;;;;;30.20;24.76;99350.47;4454272;32;34020;-59
2022/07/27 09:27:03;;;;;;;9.27;6.83;;;;;;;30.46;23.95;99344.22;4452857;32;32046;-61
2022/07/27 09:29:35;;;;;;;9.30;6.35;;;;;;;31.04;23.59;99351.13;4457000;32;34901;-59
2022/07/27 09:32:14;;;;;;;10.88;7.20;;;;;;;30.63;23.17;99344.22;4445593;32;33560;-59
2022/07/27 09:34:42;;;;;;;9.32;6.45;;;;;;;30.33;24.71;99341.84;4467112;32;35012;-60
2022/07/27 09:37:11;;;;;;;8.95;5.68;;;;;;;30.40;24.55;99348.88;4465635;32;33190;-62
2022/07/27 09:39:38;;;;;;;8.18;5.80;;;;;;;30.57;24.28;99337.78;4451424;32;34020;-62
2022/07/27 09:42:15;;;;;;;8.68;5.80;;;;;;;31.27;23.54;99338.94;4463700;32;33316;-59
2022/07/27 09:45:02;;;;;;;9.82;6.40;;;;;;;31.21;22.63;99342.72;4463491;32;34075;-62
2022/07/27 09:47:30;;;;;;;9.02;6.10;;;;;;;30.69;23.48;99336.81;4450821;32;33337;-59
2022/07/27 09:50:19;;;;;;;9.20;6.15;;;;;;;30.58;23.81;99339.44;4448476;32;32467;-60
2022/07/27 09:52:47;;;;;;;8.38;5.90;;;;;;;30.57;23.44;99335.00;4456407;32;35326;-62
2022/07/27 09:55:18;;;;;;;7.47;5.30;;;;;;;30.81;23.28;99334.78;4453986;32;32421;-61
2022/07/27 09:57:54;;;;;;;10.55;5.82;;;;;;;31.39;22.87;99352.59;4463217;32;34516;-59
2022/07/27 10:00:24;;;;;;;11.30;5.57;;;;;;;31.73;22.46;99344.09;4461236;32;34039;-62
2022/07/27 10:02:52;;;;;;;8.27;5.50;;;;;;;31.78;22.61;99339.44;4459955;32;34958;-59
2022/07/27 10:05:21;;;;;;;9.32;5.70;;;;;;;31.93;22.52;99338.75;4461555;32;34081;-62
2022/07/27 10:07:51;;;;;;;8.15;5.37;;;;;;;31.93;22.12;99343.47;4462244;32;33883;-60
2022/07/27 10:10:19;;;;;;;8.27;5.55;;;;;;;31.88;22.68;99335.97;4438144;32;34283;-59
2022/07/27 10:12:47;;;;;;;7.05;5.10;;;;;;;32.40;22.18;99337.97;4454382;32;35361;-61
2022/07/27 10:15:22;;;;;;;8.63;4.85;;;;;;;32.64;21.64;99334.81;4459581;32;34765;-61
2022/07/27 10:17:57;;;;;;;7.55;4.97;;;;;;;33.01;21.42;99334.72;4448472;32;32004;-60
2022/07/27 10:20:26;;;;;;;8.98;5.15;;;;;;;33.06;20.89;99337.50;4446410;32;33923;-59
2022/07/27 10:22:57;;;;;;;10.10;5.60;;;;;;;33.34;19.84;99325.09;4443752;32;33901;-61
2022/07/27 10:25:27;;;;;;;10.68;7.43;;;;;;;33.08;20.63;99332.53;4463535;32;34917;-59
2022/07/27 10:28:16;;;;;;;8.75;6.30;;;;;;;32.98;20.85;99326.97;4461106;32;33187;-62
2022/07/27 10:30:44;;;;;;;10.77;6.93;;;;;;;33.50;19.89;99317.66;4463643;32;33800;-61
2022/07/27 10:33:41;;;;;;;8.85;6.65;;;;;;;33.59;20.22;99326.28;4468115;32;33803;-61
2022/07/27 10:36:18;;;;;;;8.32;6.03;;;;;;;33.40;19.96;99329.56;4459156;32;32417;-60
2022/07/27 10:38:48;;;;;;;7.95;6.03;;;;;;;33.36;19.88;99314.56;4458255;32;33218;-59
2022/07/27 10:41:39;;;;;;;6.55;4.50;;;;;;;33.13;20.66;99310.38;4451615;32;34611;-59
2022/07/27 10:44:13;;;;;;;7.85;5.57;;;;;;;33.52;19.37;99321.00;4464770;32;35238;-59
2022/07/27 10:46:45;;;;;;;7.80;5.32;;;;;;;33.48;19.84;99307.91;4454115;32;33608;-60
2022/07/27 10:49:23;;;;;;;10.10;5.82;;;;;;;33.48;19.57;99305.97;4463873;32;33373;-58
2022/07/27 10:51:52;;;;;;;8.25;5.32;;;;;;;33.60;19.63;99298.25;4461036;32;34994;-62
2022/07/27 10:54:46;;;;;;;7.15;5.18;;;;;;;33.74;19.50;99304.09;4452766;32;32421;-61
2022/07/27 10:57:25;;;;;;;8.48;5.25;;;;;;;33.95;19.76;99304.91;4452490;32;34796;-60
2022/07/27 10:59:53;;;;;;;6.95;5.32;;;;;;;33.39;20.26;99307.66;4458259;32;33200;-62
2022/07/27 11:02:41;;;;;;;7.47;4.85;;;;;;;33.73;19.37;99313.50;4460409;32;33732;-59
2022/07/27 11:05:13;;;;;;;6.78;4.43;;;;;;;33.21;19.70;99309.00;4455042;32;33977;-62
2022/07/27 11:08:01;;;;;;;11.40;5.12;;;;;;;33.63;19.60;99303.25;4459944;32;34123;-60
2022/07/27 11:10:49;;;;;;;7.00;5.10;;;;;;;33.90;19.50;99291.03;4442895;32;32721;-58
2022/07/27 11:13:17;;;;;;;7.60;4.80;;;;;;;34.06;19.04;99298.28;4440351;32;33996;-59
2022/07/27 11:15:59;;;;;;;7.68;5.05;;;;;;;33.96;18.75;99297.41;4437830;32;32591;-59
2022/07/27 11:18:53;;;;;;;7.40;4.87;;;;;;;33.91;19.11;99289.94;4437842;32;32126;-61
2022/07/27 11:21:27;;;;;;;8.50;5.10;;;;;;;34.08;19.36;99290.47;4457721;32;34565;-59
2022/07/27 11:24:04;;;;;;;7.93;5.75;;;;;;;34.39;18.44;99276.53;4456903;32;34667;-60
2022/07/27 11:26:38;;;;;;;7.25;5.18;;;;;;;34.41;19.14;99273.44;4454881;32;34283;-63
2022/07/27 11:29:07;;;;;;;8.43;5.10;;;;;;;34.20;18.32;99272.69;4451211;32;33756;-61
2022/07/27 11:31:36;;;;;;;6.93;4.25;;;;;;;33.36;19.60;99272.97;4452448;32;34866;-62
2022/07/27 11:34:34;;;;;;;13.43;5.57;;;;;;;33.76;19.22;99285.22;4453613;32;33427;-59
2022/07/27 11:37:12;;;;;;;8.63;4.85;;;;;;;33.49;19.45;99281.88;4451731;32;34194;-60
2022/07/27 11:39:40;;;;;;;7.78;5.10;;;;;;;33.33;19.43;99281.84;4446761;32;34823;-59
2022/07/27 11:42:37;;;;;;;6.30;4.80;;;;;;;33.42;19.74;99284.91;4454433;32;34297;-59
2022/07/27 11:45:06;;;;;;;7.57;4.95;;;;;;;33.54;19.10;99279.09;4460944;32;33724;-60
2022/07/27 11:47:34;;;;;;;8.60;5.10;;;;;;;33.44;19.43;99276.31;4448777;32;32356;-59